sensor_id;sensor_type;location;lat;lon;timestamp;P1;durP1;ratioP1;P2;durP2;ratioP2
46899;SDS011;32647;49.382;7.078;2022-12-05T00:02:23;50.47;;;20.63;;
46899;SDS011;32647;49.382;7.078;2022-12-05T00:05:10;56.95;;;23.27;;
46899;SDS011;32647;49.382;7.078;2022-12-05T00:07:56;41.90;;;19.33;;
46899;SDS011;32647;49.382;7.078;2022-12-05T00:10:42;44.33;;;21.95;;
46899;SDS011;32647;49.382;7.078;2022-12-05T00:13:28;35.38;;;18.35;;
46899;SDS011;32647;49.382;7.078;2022-12-05T00:16:15;31.10;;;17.17;;
46899;SDS011;32647;49.382;7.078;2022-12-05T00:19:03;32.08;;;17.25;;
46899;SDS011;32647;49.382;7.078;2022-12-05T00:21:51;62.53;;;25.15;;
46899;SDS011;32647;49.382;7.078;2022-12-05T00:24:37;61.92;;;23.20;;
46899;SDS011;32647;49.382;7.078;2022-12-05T00:27:23;41.78;;;19.98;;
46899;SDS011;32647;49.382;7.078;2022-12-05T00:30:09;48.70;;;22.77;;
46899;SDS011;32647;49.382;7.078;2022-12-05T00:32:56;47.90;;;20.00;;
46899;SDS011;32647;49.382;7.078;2022-12-05T00:35:42;38.60;;;19.45;;
46899;SDS011;32647;49.382;7.078;2022-12-05T00:38:28;43.20;;;19.23;;
46899;SDS011;32647;49.382;7.078;2022-12-05T00:41:16;47.55;;;21.10;;
46899;SDS011;32647;49.382;7.078;2022-12-05T00:44:05;41.70;;;18.90;;
46899;SDS011;32647;49.382;7.078;2022-12-05T00:46:51;43.63;;;19.95;;
46899;SDS011;32647;49.382;7.078;2022-12-05T00:49:37;48.60;;;20.58;;
46899;SDS011;32647;49.382;7.078;2022-12-05T00:52:23;38.05;;;18.98;;
46899;SDS011;32647;49.382;7.078;2022-12-05T00:55:09;77.30;;;25.88;;
46899;SDS011;32647;49.382;7.078;2022-12-05T00:57:55;60.00;;;23.10;;
46899;SDS011;32647;49.382;7.078;2022-12-05T01:00:41;40.00;;;19.90;;
46899;SDS011;32647;49.382;7.078;2022-12-05T01:03:27;44.92;;;19.25;;
46899;SDS011;32647;49.382;7.078;2022-12-05T01:06:13;33.15;;;16.40;;
46899;SDS011;32647;49.382;7.078;2022-12-05T01:09:00;46.33;;;20.65;;
46899;SDS011;32647;49.382;7.078;2022-12-05T01:11:48;40.30;;;19.17;;
46899;SDS011;32647;49.382;7.078;2022-12-05T01:14:34;45.35;;;20.38;;
46899;SDS011;32647;49.382;7.078;2022-12-05T01:17:20;67.95;;;23.15;;
46899;SDS011;32647;49.382;7.078;2022-12-05T01:20:06;50.22;;;21.95;;
46899;SDS011;32647;49.382;7.078;2022-12-05T01:22:52;35.85;;;18.02;;
46899;SDS011;32647;49.382;7.078;2022-12-05T01:25:39;41.75;;;18.88;;
46899;SDS011;32647;49.382;7.078;2022-12-05T01:28:26;42.45;;;19.77;;
46899;SDS011;32647;49.382;7.078;2022-12-05T01:31:17;38.30;;;18.95;;
46899;SDS011;32647;49.382;7.078;2022-12-05T01:34:11;39.78;;;18.98;;
46899;SDS011;32647;49.382;7.078;2022-12-05T01:36:59;38.88;;;18.60;;
46899;SDS011;32647;49.382;7.078;2022-12-05T01:39:45;35.22;;;19.17;;
46899;SDS011;32647;49.382;7.078;2022-12-05T01:42:32;65.72;;;23.30;;
46899;SDS011;32647;49.382;7.078;2022-12-05T01:45:38;91.55;;;27.27;;
46899;SDS011;32647;49.382;7.078;2022-12-05T01:48:32;69.65;;;23.45;;
46899;SDS011;32647;49.382;7.078;2022-12-05T01:54:07;77.57;;;24.25;;
46899;SDS011;32647;49.382;7.078;2022-12-05T01:56:55;52.28;;;20.77;;
46899;SDS011;32647;49.382;7.078;2022-12-05T01:59:48;52.85;;;21.02;;
46899;SDS011;32647;49.382;7.078;2022-12-05T02:02:37;52.53;;;20.80;;
46899;SDS011;32647;49.382;7.078;2022-12-05T02:05:28;97.93;;;27.17;;
46899;SDS011;32647;49.382;7.078;2022-12-05T02:08:16;53.40;;;21.35;;
46899;SDS011;32647;49.382;7.078;2022-12-05T02:11:04;43.38;;;20.13;;
46899;SDS011;32647;49.382;7.078;2022-12-05T02:16:57;43.88;;;17.83;;
46899;SDS011;32647;49.382;7.078;2022-12-05T02:20:44;45.75;;;20.17;;
46899;SDS011;32647;49.382;7.078;2022-12-05T02:23:32;43.28;;;18.33;;
46899;SDS011;32647;49.382;7.078;2022-12-05T02:29:44;45.20;;;18.33;;
46899;SDS011;32647;49.382;7.078;2022-12-05T02:38:57;38.45;;;16.40;;
46899;SDS011;32647;49.382;7.078;2022-12-05T02:42:03;36.38;;;15.77;;
46899;SDS011;32647;49.382;7.078;2022-12-05T02:45:04;55.70;;;18.83;;
46899;SDS011;32647;49.382;7.078;2022-12-05T02:47:54;48.20;;;18.52;;
46899;SDS011;32647;49.382;7.078;2022-12-05T02:50:41;49.30;;;19.55;;
46899;SDS011;32647;49.382;7.078;2022-12-05T02:53:28;40.60;;;18.10;;
46899;SDS011;32647;49.382;7.078;2022-12-05T02:56:15;51.40;;;19.58;;
46899;SDS011;32647;49.382;7.078;2022-12-05T02:59:02;40.10;;;17.52;;
46899;SDS011;32647;49.382;7.078;2022-12-05T03:01:48;52.13;;;20.52;;
46899;SDS011;32647;49.382;7.078;2022-12-05T03:04:35;66.57;;;22.88;;
46899;SDS011;32647;49.382;7.078;2022-12-05T03:07:22;50.47;;;20.52;;
46899;SDS011;32647;49.382;7.078;2022-12-05T03:10:13;95.95;;;25.25;;
46899;SDS011;32647;49.382;7.078;2022-12-05T03:13:04;48.40;;;19.35;;
46899;SDS011;32647;49.382;7.078;2022-12-05T03:15:56;69.55;;;23.27;;
46899;SDS011;32647;49.382;7.078;2022-12-05T03:18:53;48.38;;;18.70;;
46899;SDS011;32647;49.382;7.078;2022-12-05T03:21:48;52.75;;;20.45;;
46899;SDS011;32647;49.382;7.078;2022-12-05T03:24:45;39.67;;;18.58;;
46899;SDS011;32647;49.382;7.078;2022-12-05T03:30:23;39.45;;;17.48;;
46899;SDS011;32647;49.382;7.078;2022-12-05T03:36:01;39.47;;;17.90;;
46899;SDS011;32647;49.382;7.078;2022-12-05T03:38:56;50.03;;;19.63;;
46899;SDS011;32647;49.382;7.078;2022-12-05T03:44:51;41.45;;;18.45;;
46899;SDS011;32647;49.382;7.078;2022-12-05T03:47:47;37.45;;;17.88;;
46899;SDS011;32647;49.382;7.078;2022-12-05T03:50:36;45.90;;;18.92;;
46899;SDS011;32647;49.382;7.078;2022-12-05T03:53:26;43.92;;;19.08;;
46899;SDS011;32647;49.382;7.078;2022-12-05T04:02:51;47.88;;;18.88;;
46899;SDS011;32647;49.382;7.078;2022-12-05T04:08:18;45.60;;;18.63;;
46899;SDS011;32647;49.382;7.078;2022-12-05T04:11:21;47.78;;;18.92;;
46899;SDS011;32647;49.382;7.078;2022-12-05T04:14:10;44.03;;;17.08;;
46899;SDS011;32647;49.382;7.078;2022-12-05T04:17:03;44.38;;;18.20;;
46899;SDS011;32647;49.382;7.078;2022-12-05T04:20:03;66.13;;;21.48;;
46899;SDS011;32647;49.382;7.078;2022-12-05T04:23:20;71.10;;;21.63;;
46899;SDS011;32647;49.382;7.078;2022-12-05T04:26:16;55.10;;;18.77;;
46899;SDS011;32647;49.382;7.078;2022-12-05T04:29:16;65.65;;;20.38;;
46899;SDS011;32647;49.382;7.078;2022-12-05T04:32:12;63.55;;;20.33;;
46899;SDS011;32647;49.382;7.078;2022-12-05T04:35:00;53.08;;;18.00;;
46899;SDS011;32647;49.382;7.078;2022-12-05T04:37:53;57.47;;;18.23;;
46899;SDS011;32647;49.382;7.078;2022-12-05T04:41:04;78.53;;;20.80;;
46899;SDS011;32647;49.382;7.078;2022-12-05T04:43:55;58.30;;;19.60;;
46899;SDS011;32647;49.382;7.078;2022-12-05T04:46:46;48.45;;;17.92;;
46899;SDS011;32647;49.382;7.078;2022-12-05T04:49:34;58.25;;;20.17;;
46899;SDS011;32647;49.382;7.078;2022-12-05T04:52:22;52.85;;;19.10;;
46899;SDS011;32647;49.382;7.078;2022-12-05T04:55:15;51.13;;;16.98;;
46899;SDS011;32647;49.382;7.078;2022-12-05T04:58:10;53.42;;;18.38;;
46899;SDS011;32647;49.382;7.078;2022-12-05T05:01:11;52.15;;;18.55;;
46899;SDS011;32647;49.382;7.078;2022-12-05T05:04:06;44.58;;;18.48;;
46899;SDS011;32647;49.382;7.078;2022-12-05T05:06:57;51.92;;;17.42;;
46899;SDS011;32647;49.382;7.078;2022-12-05T05:09:43;62.97;;;19.70;;
46899;SDS011;32647;49.382;7.078;2022-12-05T05:12:30;58.90;;;20.75;;
46899;SDS011;32647;49.382;7.078;2022-12-05T05:15:16;59.63;;;19.88;;
46899;SDS011;32647;49.382;7.078;2022-12-05T05:18:02;48.70;;;16.80;;
46899;SDS011;32647;49.382;7.078;2022-12-05T05:20:48;64.05;;;19.08;;
46899;SDS011;32647;49.382;7.078;2022-12-05T05:23:34;40.33;;;16.13;;
46899;SDS011;32647;49.382;7.078;2022-12-05T05:26:20;48.45;;;16.58;;
46899;SDS011;32647;49.382;7.078;2022-12-05T05:29:08;73.70;;;20.63;;
46899;SDS011;32647;49.382;7.078;2022-12-05T05:31:54;57.53;;;20.70;;
46899;SDS011;32647;49.382;7.078;2022-12-05T05:34:40;37.17;;;15.48;;
46899;SDS011;32647;49.382;7.078;2022-12-05T05:37:26;39.70;;;15.23;;
46899;SDS011;32647;49.382;7.078;2022-12-05T05:40:12;64.35;;;28.00;;
46899;SDS011;32647;49.382;7.078;2022-12-05T05:42:58;40.17;;;17.48;;
46899;SDS011;32647;49.382;7.078;2022-12-05T05:45:44;40.28;;;16.15;;
46899;SDS011;32647;49.382;7.078;2022-12-05T05:48:30;53.40;;;17.92;;
46899;SDS011;32647;49.382;7.078;2022-12-05T05:51:16;55.35;;;18.58;;
46899;SDS011;32647;49.382;7.078;2022-12-05T05:54:04;67.25;;;18.55;;
46899;SDS011;32647;49.382;7.078;2022-12-05T05:56:50;57.28;;;19.15;;
46899;SDS011;32647;49.382;7.078;2022-12-05T05:59:36;64.80;;;19.95;;
46899;SDS011;32647;49.382;7.078;2022-12-05T06:02:22;72.68;;;20.05;;
46899;SDS011;32647;49.382;7.078;2022-12-05T06:05:08;75.43;;;20.25;;
46899;SDS011;32647;49.382;7.078;2022-12-05T06:07:54;68.53;;;18.48;;
46899;SDS011;32647;49.382;7.078;2022-12-05T06:10:40;49.15;;;17.83;;
46899;SDS011;32647;49.382;7.078;2022-12-05T06:13:26;62.88;;;19.40;;
46899;SDS011;32647;49.382;7.078;2022-12-05T06:16:13;58.55;;;22.65;;
46899;SDS011;32647;49.382;7.078;2022-12-05T06:19:00;71.63;;;23.92;;
46899;SDS011;32647;49.382;7.078;2022-12-05T06:21:49;82.20;;;27.42;;
46899;SDS011;32647;49.382;7.078;2022-12-05T06:24:35;65.57;;;23.35;;
46899;SDS011;32647;49.382;7.078;2022-12-05T06:27:21;96.78;;;25.52;;
46899;SDS011;32647;49.382;7.078;2022-12-05T06:30:08;48.28;;;18.38;;
46899;SDS011;32647;49.382;7.078;2022-12-05T06:32:54;60.70;;;20.98;;
46899;SDS011;32647;49.382;7.078;2022-12-05T06:35:40;69.10;;;22.35;;
46899;SDS011;32647;49.382;7.078;2022-12-05T06:38:27;59.03;;;21.27;;
46899;SDS011;32647;49.382;7.078;2022-12-05T06:41:14;65.03;;;21.27;;
46899;SDS011;32647;49.382;7.078;2022-12-05T06:44:01;75.88;;;21.83;;
46899;SDS011;32647;49.382;7.078;2022-12-05T06:46:47;75.10;;;24.05;;
46899;SDS011;32647;49.382;7.078;2022-12-05T06:49:33;93.65;;;26.45;;
46899;SDS011;32647;49.382;7.078;2022-12-05T06:52:20;83.78;;;26.17;;
46899;SDS011;32647;49.382;7.078;2022-12-05T06:55:06;69.28;;;23.55;;
46899;SDS011;32647;49.382;7.078;2022-12-05T06:57:52;86.65;;;25.15;;
46899;SDS011;32647;49.382;7.078;2022-12-05T07:00:38;81.72;;;24.10;;
46899;SDS011;32647;49.382;7.078;2022-12-05T07:03:42;88.30;;;26.27;;
46899;SDS011;32647;49.382;7.078;2022-12-05T07:06:28;80.00;;;24.58;;
46899;SDS011;32647;49.382;7.078;2022-12-05T07:09:15;74.20;;;26.42;;
46899;SDS011;32647;49.382;7.078;2022-12-05T07:12:02;65.68;;;24.80;;
46899;SDS011;32647;49.382;7.078;2022-12-05T07:14:48;77.90;;;27.50;;
46899;SDS011;32647;49.382;7.078;2022-12-05T07:17:35;59.15;;;25.98;;
46899;SDS011;32647;49.382;7.078;2022-12-05T07:20:22;121.40;;;44.08;;
46899;SDS011;32647;49.382;7.078;2022-12-05T07:23:08;117.05;;;37.95;;
46899;SDS011;32647;49.382;7.078;2022-12-05T07:25:54;62.90;;;24.73;;
46899;SDS011;32647;49.382;7.078;2022-12-05T07:28:42;58.45;;;22.45;;
46899;SDS011;32647;49.382;7.078;2022-12-05T07:31:28;74.85;;;24.38;;
46899;SDS011;32647;49.382;7.078;2022-12-05T07:34:14;50.95;;;21.52;;
46899;SDS011;32647;49.382;7.078;2022-12-05T07:37:00;72.15;;;24.90;;
46899;SDS011;32647;49.382;7.078;2022-12-05T07:39:46;59.83;;;24.73;;
46899;SDS011;32647;49.382;7.078;2022-12-05T07:42:32;49.15;;;19.83;;
46899;SDS011;32647;49.382;7.078;2022-12-05T07:45:21;53.38;;;21.27;;
46899;SDS011;32647;49.382;7.078;2022-12-05T07:48:07;58.63;;;21.05;;
46899;SDS011;32647;49.382;7.078;2022-12-05T07:50:53;56.90;;;21.20;;
46899;SDS011;32647;49.382;7.078;2022-12-05T07:53:39;54.63;;;22.40;;
46899;SDS011;32647;49.382;7.078;2022-12-05T07:56:28;49.95;;;21.05;;
46899;SDS011;32647;49.382;7.078;2022-12-05T07:59:14;56.50;;;21.90;;
46899;SDS011;32647;49.382;7.078;2022-12-05T08:02:00;53.45;;;21.58;;
46899;SDS011;32647;49.382;7.078;2022-12-05T08:04:46;73.07;;;23.92;;
46899;SDS011;32647;49.382;7.078;2022-12-05T08:07:32;57.42;;;21.25;;
46899;SDS011;32647;49.382;7.078;2022-12-05T08:10:18;65.65;;;24.48;;
46899;SDS011;32647;49.382;7.078;2022-12-05T08:13:04;53.30;;;21.13;;
46899;SDS011;32647;49.382;7.078;2022-12-05T08:15:52;55.45;;;20.35;;
46899;SDS011;32647;49.382;7.078;2022-12-05T08:18:38;46.95;;;19.35;;
46899;SDS011;32647;49.382;7.078;2022-12-05T08:21:26;53.58;;;22.00;;
46899;SDS011;32647;49.382;7.078;2022-12-05T08:24:12;53.42;;;22.08;;
46899;SDS011;32647;49.382;7.078;2022-12-05T08:26:58;51.95;;;21.00;;
46899;SDS011;32647;49.382;7.078;2022-12-05T08:29:44;68.78;;;25.85;;
46899;SDS011;32647;49.382;7.078;2022-12-05T08:32:30;62.72;;;24.00;;
46899;SDS011;32647;49.382;7.078;2022-12-05T08:35:16;62.78;;;23.77;;
46899;SDS011;32647;49.382;7.078;2022-12-05T08:38:02;58.85;;;22.23;;
46899;SDS011;32647;49.382;7.078;2022-12-05T08:40:48;73.55;;;25.15;;
46899;SDS011;32647;49.382;7.078;2022-12-05T08:43:34;52.70;;;21.33;;
46899;SDS011;32647;49.382;7.078;2022-12-05T08:46:20;60.03;;;22.77;;
46899;SDS011;32647;49.382;7.078;2022-12-05T08:49:06;70.50;;;25.25;;
46899;SDS011;32647;49.382;7.078;2022-12-05T08:51:53;63.50;;;24.10;;
46899;SDS011;32647;49.382;7.078;2022-12-05T08:54:39;74.20;;;27.88;;
46899;SDS011;32647;49.382;7.078;2022-12-05T08:57:25;82.00;;;28.88;;
46899;SDS011;32647;49.382;7.078;2022-12-05T09:00:11;77.47;;;28.05;;
46899;SDS011;32647;49.382;7.078;2022-12-05T09:02:57;99.57;;;31.42;;
46899;SDS011;32647;49.382;7.078;2022-12-05T09:05:43;98.50;;;30.55;;
46899;SDS011;32647;49.382;7.078;2022-12-05T09:08:30;84.90;;;28.77;;
46899;SDS011;32647;49.382;7.078;2022-12-05T09:11:16;90.15;;;32.35;;
46899;SDS011;32647;49.382;7.078;2022-12-05T09:14:04;118.25;;;33.97;;
46899;SDS011;32647;49.382;7.078;2022-12-05T09:16:50;102.18;;;33.45;;
46899;SDS011;32647;49.382;7.078;2022-12-05T09:19:36;125.18;;;33.70;;
46899;SDS011;32647;49.382;7.078;2022-12-05T09:22:22;74.93;;;27.98;;
46899;SDS011;32647;49.382;7.078;2022-12-05T09:25:08;92.22;;;30.27;;
46899;SDS011;32647;49.382;7.078;2022-12-05T09:27:54;78.00;;;27.02;;
46899;SDS011;32647;49.382;7.078;2022-12-05T09:30:40;89.65;;;29.50;;
46899;SDS011;32647;49.382;7.078;2022-12-05T09:33:28;100.63;;;30.83;;
46899;SDS011;32647;49.382;7.078;2022-12-05T09:36:16;80.80;;;29.55;;
46899;SDS011;32647;49.382;7.078;2022-12-05T09:39:05;84.03;;;29.77;;
46899;SDS011;32647;49.382;7.078;2022-12-05T09:41:55;89.30;;;29.60;;
46899;SDS011;32647;49.382;7.078;2022-12-05T09:45:14;90.28;;;29.73;;
46899;SDS011;32647;49.382;7.078;2022-12-05T09:48:11;86.75;;;30.65;;
46899;SDS011;32647;49.382;7.078;2022-12-05T09:51:00;98.38;;;32.28;;
46899;SDS011;32647;49.382;7.078;2022-12-05T09:53:47;89.03;;;30.98;;
46899;SDS011;32647;49.382;7.078;2022-12-05T09:56:34;105.53;;;33.45;;
46899;SDS011;32647;49.382;7.078;2022-12-05T09:59:21;94.65;;;30.83;;
46899;SDS011;32647;49.382;7.078;2022-12-05T10:05:07;114.10;;;37.80;;
46899;SDS011;32647;49.382;7.078;2022-12-05T10:08:06;86.35;;;31.35;;
46899;SDS011;32647;49.382;7.078;2022-12-05T10:14:51;98.72;;;32.97;;
46899;SDS011;32647;49.382;7.078;2022-12-05T10:17:33;69.32;;;28.48;;
46899;SDS011;32647;49.382;7.078;2022-12-05T10:20:25;74.80;;;29.50;;
46899;SDS011;32647;49.382;7.078;2022-12-05T10:23:20;80.55;;;28.67;;
46899;SDS011;32647;49.382;7.078;2022-12-05T10:26:11;70.68;;;27.50;;
46899;SDS011;32647;49.382;7.078;2022-12-05T10:32:13;65.13;;;25.00;;
46899;SDS011;32647;49.382;7.078;2022-12-05T10:38:04;60.65;;;26.52;;
46899;SDS011;32647;49.382;7.078;2022-12-05T10:40:52;57.83;;;25.02;;
46899;SDS011;32647;49.382;7.078;2022-12-05T10:43:41;45.40;;;22.10;;
46899;SDS011;32647;49.382;7.078;2022-12-05T10:46:28;59.33;;;24.23;;
46899;SDS011;32647;49.382;7.078;2022-12-05T10:49:15;46.08;;;22.52;;
46899;SDS011;32647;49.382;7.078;2022-12-05T10:52:03;65.75;;;26.63;;
46899;SDS011;32647;49.382;7.078;2022-12-05T10:54:56;55.13;;;23.85;;
46899;SDS011;32647;49.382;7.078;2022-12-05T10:57:50;46.15;;;22.40;;
46899;SDS011;32647;49.382;7.078;2022-12-05T11:00:56;44.03;;;23.58;;
46899;SDS011;32647;49.382;7.078;2022-12-05T11:03:58;40.47;;;22.02;;
46899;SDS011;32647;49.382;7.078;2022-12-05T11:06:50;44.72;;;21.40;;
46899;SDS011;32647;49.382;7.078;2022-12-05T11:09:44;42.30;;;21.55;;
46899;SDS011;32647;49.382;7.078;2022-12-05T11:15:19;46.88;;;22.08;;
46899;SDS011;32647;49.382;7.078;2022-12-05T11:21:26;40.90;;;21.13;;
46899;SDS011;32647;49.382;7.078;2022-12-05T11:27:23;45.58;;;22.92;;
46899;SDS011;32647;49.382;7.078;2022-12-05T11:30:18;38.83;;;22.05;;
46899;SDS011;32647;49.382;7.078;2022-12-05T11:33:25;36.13;;;20.20;;
46899;SDS011;32647;49.382;7.078;2022-12-05T11:36:22;35.42;;;19.77;;
46899;SDS011;32647;49.382;7.078;2022-12-05T11:39:14;34.88;;;19.67;;
46899;SDS011;32647;49.382;7.078;2022-12-05T11:42:09;38.88;;;20.85;;
46899;SDS011;32647;49.382;7.078;2022-12-05T11:47:51;154.40;;;58.72;;
46899;SDS011;32647;49.382;7.078;2022-12-05T11:56:58;64.35;;;31.98;;
46899;SDS011;32647;49.382;7.078;2022-12-05T12:00:11;65.53;;;33.50;;
46899;SDS011;32647;49.382;7.078;2022-12-05T12:03:12;51.10;;;27.85;;
46899;SDS011;32647;49.382;7.078;2022-12-05T12:16:02;27.75;;;14.70;;
46899;SDS011;32647;49.382;7.078;2022-12-05T12:25:20;29.83;;;17.10;;
46899;SDS011;32647;49.382;7.078;2022-12-05T12:31:28;24.30;;;14.40;;
46899;SDS011;32647;49.382;7.078;2022-12-05T12:40:22;12.27;;;8.68;;
46899;SDS011;32647;49.382;7.078;2022-12-05T12:46:49;14.00;;;8.55;;
46899;SDS011;32647;49.382;7.078;2022-12-05T12:52:58;11.88;;;8.27;;
46899;SDS011;32647;49.382;7.078;2022-12-05T13:05:29;10.60;;;7.30;;
46899;SDS011;32647;49.382;7.078;2022-12-05T13:08:47;12.15;;;8.45;;
46899;SDS011;32647;49.382;7.078;2022-12-05T13:11:38;12.30;;;8.07;;
46899;SDS011;32647;49.382;7.078;2022-12-05T13:14:26;8.73;;;7.22;;
46899;SDS011;32647;49.382;7.078;2022-12-05T13:17:15;13.45;;;8.00;;
46899;SDS011;32647;49.382;7.078;2022-12-05T13:20:04;9.40;;;6.97;;
46899;SDS011;32647;49.382;7.078;2022-12-05T13:22:57;10.90;;;8.50;;
46899;SDS011;32647;49.382;7.078;2022-12-05T13:28:30;14.63;;;8.75;;
46899;SDS011;32647;49.382;7.078;2022-12-05T13:31:39;15.20;;;9.20;;
46899;SDS011;32647;49.382;7.078;2022-12-05T13:37:29;9.10;;;7.65;;
46899;SDS011;32647;49.382;7.078;2022-12-05T13:40:35;8.80;;;7.43;;
46899;SDS011;32647;49.382;7.078;2022-12-05T13:43:44;8.93;;;7.10;;
46899;SDS011;32647;49.382;7.078;2022-12-05T13:46:34;10.10;;;7.13;;
46899;SDS011;32647;49.382;7.078;2022-12-05T13:49:29;9.98;;;7.97;;
46899;SDS011;32647;49.382;7.078;2022-12-05T13:52:24;10.45;;;9.13;;
46899;SDS011;32647;49.382;7.078;2022-12-05T13:55:30;10.35;;;8.65;;
46899;SDS011;32647;49.382;7.078;2022-12-05T14:04:40;10.63;;;8.43;;
46899;SDS011;32647;49.382;7.078;2022-12-05T14:07:36;11.63;;;9.10;;
46899;SDS011;32647;49.382;7.078;2022-12-05T14:19:12;11.07;;;9.40;;
46899;SDS011;32647;49.382;7.078;2022-12-05T14:25:08;14.95;;;11.13;;
46899;SDS011;32647;49.382;7.078;2022-12-05T14:31:19;12.43;;;10.65;;
46899;SDS011;32647;49.382;7.078;2022-12-05T14:34:23;12.82;;;9.80;;
46899;SDS011;32647;49.382;7.078;2022-12-05T14:40:01;12.65;;;9.77;;
46899;SDS011;32647;49.382;7.078;2022-12-05T14:43:02;11.25;;;9.60;;
46899;SDS011;32647;49.382;7.078;2022-12-05T14:48:38;11.90;;;9.93;;
46899;SDS011;32647;49.382;7.078;2022-12-05T14:54:14;11.77;;;9.63;;
46899;SDS011;32647;49.382;7.078;2022-12-05T14:57:10;14.70;;;10.10;;
46899;SDS011;32647;49.382;7.078;2022-12-05T15:00:04;15.00;;;10.88;;
46899;SDS011;32647;49.382;7.078;2022-12-05T15:02:51;12.20;;;9.75;;
46899;SDS011;32647;49.382;7.078;2022-12-05T15:05:40;9.88;;;8.70;;
46899;SDS011;32647;49.382;7.078;2022-12-05T15:08:28;11.65;;;9.30;;
46899;SDS011;32647;49.382;7.078;2022-12-05T15:11:20;11.00;;;9.38;;
46899;SDS011;32647;49.382;7.078;2022-12-05T15:14:17;11.10;;;9.10;;
46899;SDS011;32647;49.382;7.078;2022-12-05T15:17:06;13.10;;;9.82;;
46899;SDS011;32647;49.382;7.078;2022-12-05T15:32:16;16.35;;;11.70;;
46899;SDS011;32647;49.382;7.078;2022-12-05T15:35:05;11.27;;;9.30;;
46899;SDS011;32647;49.382;7.078;2022-12-05T15:38:03;17.70;;;12.20;;
46899;SDS011;32647;49.382;7.078;2022-12-05T15:40:57;13.82;;;10.45;;
46899;SDS011;32647;49.382;7.078;2022-12-05T15:43:46;12.27;;;9.70;;
46899;SDS011;32647;49.382;7.078;2022-12-05T15:46:40;13.55;;;9.73;;
46899;SDS011;32647;49.382;7.078;2022-12-05T15:49:26;13.40;;;10.20;;
46899;SDS011;32647;49.382;7.078;2022-12-05T15:55:14;16.20;;;12.75;;
46899;SDS011;32647;49.382;7.078;2022-12-05T15:58:14;15.73;;;12.35;;
46899;SDS011;32647;49.382;7.078;2022-12-05T16:01:11;15.43;;;12.77;;
46899;SDS011;32647;49.382;7.078;2022-12-05T16:07:04;17.30;;;13.57;;
46899;SDS011;32647;49.382;7.078;2022-12-05T16:09:57;23.23;;;17.27;;
46899;SDS011;32647;49.382;7.078;2022-12-05T16:12:44;18.60;;;13.55;;
46899;SDS011;32647;49.382;7.078;2022-12-05T16:15:31;17.90;;;13.10;;
46899;SDS011;32647;49.382;7.078;2022-12-05T16:18:35;17.27;;;12.77;;
46899;SDS011;32647;49.382;7.078;2022-12-05T16:21:29;17.55;;;12.25;;
46899;SDS011;32647;49.382;7.078;2022-12-05T16:24:20;17.90;;;13.15;;
46899;SDS011;32647;49.382;7.078;2022-12-05T16:27:14;18.48;;;14.10;;
46899;SDS011;32647;49.382;7.078;2022-12-05T16:30:18;14.93;;;11.80;;
46899;SDS011;32647;49.382;7.078;2022-12-05T16:33:11;15.88;;;11.65;;
46899;SDS011;32647;49.382;7.078;2022-12-05T16:36:09;16.48;;;11.82;;
46899;SDS011;32647;49.382;7.078;2022-12-05T16:39:00;14.15;;;12.35;;
46899;SDS011;32647;49.382;7.078;2022-12-05T16:41:48;20.20;;;14.95;;
46899;SDS011;32647;49.382;7.078;2022-12-05T16:47:52;12.32;;;10.35;;
46899;SDS011;32647;49.382;7.078;2022-12-05T16:50:40;14.20;;;11.15;;
46899;SDS011;32647;49.382;7.078;2022-12-05T16:53:28;12.45;;;9.38;;
46899;SDS011;32647;49.382;7.078;2022-12-05T16:59:36;14.02;;;10.18;;
46899;SDS011;32647;49.382;7.078;2022-12-05T17:02:22;13.30;;;9.98;;
46899;SDS011;32647;49.382;7.078;2022-12-05T17:05:11;15.00;;;11.70;;
46899;SDS011;32647;49.382;7.078;2022-12-05T17:07:58;14.90;;;11.88;;
46899;SDS011;32647;49.382;7.078;2022-12-05T17:10:44;17.05;;;11.85;;
46899;SDS011;32647;49.382;7.078;2022-12-05T17:13:30;18.25;;;13.25;;
46899;SDS011;32647;49.382;7.078;2022-12-05T17:16:17;22.63;;;13.32;;
46899;SDS011;32647;49.382;7.078;2022-12-05T17:19:04;18.42;;;14.07;;
46899;SDS011;32647;49.382;7.078;2022-12-05T17:21:50;21.02;;;15.35;;
46899;SDS011;32647;49.382;7.078;2022-12-05T17:24:36;18.50;;;13.65;;
46899;SDS011;32647;49.382;7.078;2022-12-05T17:27:22;19.15;;;13.27;;
46899;SDS011;32647;49.382;7.078;2022-12-05T17:30:08;19.85;;;13.68;;
46899;SDS011;32647;49.382;7.078;2022-12-05T17:32:54;18.42;;;14.13;;
46899;SDS011;32647;49.382;7.078;2022-12-05T17:35:40;16.88;;;12.95;;
46899;SDS011;32647;49.382;7.078;2022-12-05T17:38:26;21.17;;;15.50;;
46899;SDS011;32647;49.382;7.078;2022-12-05T17:41:17;19.70;;;13.63;;
46899;SDS011;32647;49.382;7.078;2022-12-05T17:44:09;14.00;;;10.50;;
46899;SDS011;32647;49.382;7.078;2022-12-05T17:46:58;18.02;;;11.90;;
46899;SDS011;32647;49.382;7.078;2022-12-05T17:49:44;13.40;;;9.88;;
46899;SDS011;32647;49.382;7.078;2022-12-05T17:52:31;12.10;;;9.52;;
46899;SDS011;32647;49.382;7.078;2022-12-05T17:55:19;14.80;;;10.02;;
46899;SDS011;32647;49.382;7.078;2022-12-05T17:58:08;14.05;;;8.82;;
46899;SDS011;32647;49.382;7.078;2022-12-05T18:00:55;11.40;;;8.30;;
46899;SDS011;32647;49.382;7.078;2022-12-05T18:03:41;11.73;;;9.25;;
46899;SDS011;32647;49.382;7.078;2022-12-05T18:06:27;13.80;;;8.45;;
46899;SDS011;32647;49.382;7.078;2022-12-05T18:09:13;11.07;;;8.30;;
46899;SDS011;32647;49.382;7.078;2022-12-05T18:11:59;11.20;;;7.57;;
46899;SDS011;32647;49.382;7.078;2022-12-05T18:14:45;13.18;;;8.20;;
46899;SDS011;32647;49.382;7.078;2022-12-05T18:17:31;13.52;;;9.18;;
46899;SDS011;32647;49.382;7.078;2022-12-05T18:20:17;12.55;;;8.02;;
46899;SDS011;32647;49.382;7.078;2022-12-05T18:23:03;10.95;;;7.68;;
46899;SDS011;32647;49.382;7.078;2022-12-05T18:25:59;8.00;;;6.32;;
46899;SDS011;32647;49.382;7.078;2022-12-05T18:28:45;13.25;;;6.35;;
46899;SDS011;32647;49.382;7.078;2022-12-05T18:31:31;9.93;;;6.78;;
46899;SDS011;32647;49.382;7.078;2022-12-05T18:34:17;9.95;;;7.63;;
46899;SDS011;32647;49.382;7.078;2022-12-05T18:37:03;11.07;;;8.18;;
46899;SDS011;32647;49.382;7.078;2022-12-05T18:39:49;14.02;;;8.90;;
46899;SDS011;32647;49.382;7.078;2022-12-05T18:42:35;14.70;;;8.65;;
46899;SDS011;32647;49.382;7.078;2022-12-05T18:45:21;12.50;;;8.82;;
46899;SDS011;32647;49.382;7.078;2022-12-05T18:48:07;10.55;;;8.50;;
46899;SDS011;32647;49.382;7.078;2022-12-05T18:50:53;12.30;;;8.85;;
46899;SDS011;32647;49.382;7.078;2022-12-05T18:53:39;13.10;;;9.52;;
46899;SDS011;32647;49.382;7.078;2022-12-05T18:56:27;9.90;;;7.55;;
46899;SDS011;32647;49.382;7.078;2022-12-05T18:59:15;9.38;;;7.30;;
46899;SDS011;32647;49.382;7.078;2022-12-05T19:02:03;10.30;;;7.50;;
46899;SDS011;32647;49.382;7.078;2022-12-05T19:04:49;11.20;;;7.55;;
46899;SDS011;32647;49.382;7.078;2022-12-05T19:07:35;9.70;;;7.20;;
46899;SDS011;32647;49.382;7.078;2022-12-05T19:10:21;8.20;;;6.30;;
46899;SDS011;32647;49.382;7.078;2022-12-05T19:13:07;11.35;;;6.85;;
46899;SDS011;32647;49.382;7.078;2022-12-05T19:15:59;9.10;;;6.50;;
46899;SDS011;32647;49.382;7.078;2022-12-05T19:18:46;12.57;;;7.20;;
46899;SDS011;32647;49.382;7.078;2022-12-05T19:21:32;12.68;;;7.97;;
46899;SDS011;32647;49.382;7.078;2022-12-05T19:24:19;9.45;;;7.07;;